createdAt,value
2018-05-08T00:00:21.992Z,21.25
2018-05-08T00:01:22.011Z,21.25
2018-05-08T00:02:22.038Z,21.15
2018-05-08T00:03:22.066Z,20.78
2018-05-08T00:04:22.093Z,21.07
2018-05-08T00:05:22.121Z,21.07
2018-05-08T00:06:22.149Z,21.06
2018-05-08T00:07:22.176Z,21.07
2018-05-08T00:08:22.203Z,21.17
2018-05-08T00:09:22.232Z,20.68
2018-05-08T00:10:22.259Z,20.78
2018-05-08T00:11:22.286Z,20.87
2018-05-08T00:12:22.313Z,20.97
2018-05-08T00:13:22.341Z,20.87
2018-05-08T00:14:22.370Z,20.78
2018-05-08T00:15:22.396Z,20.59
2018-05-08T00:16:22.424Z,20.68
2018-05-08T00:17:22.452Z,20.49
2018-05-08T00:18:22.481Z,20.68
2018-05-08T00:19:22.506Z,20.87
2018-05-08T00:20:22.537Z,20.68
2018-05-08T00:21:22.600Z,20.68
2018-05-08T00:22:22.590Z,20.68
2018-05-08T00:23:22.616Z,20.78
2018-05-08T00:24:22.644Z,20.68
2018-05-08T00:25:22.672Z,20.68
2018-05-08T00:26:22.700Z,20.68
2018-05-08T00:27:22.727Z,20.68
2018-05-08T00:28:22.758Z,20.49
2018-05-08T00:29:22.783Z,20.87
2018-05-08T00:30:22.810Z,20.59
2018-05-08T00:31:22.837Z,20.39
2018-05-08T00:32:22.865Z,20.49
2018-05-08T00:33:22.893Z,20.49
2018-05-08T00:34:22.922Z,20.49
2018-05-08T00:35:22.947Z,20.49
2018-05-08T00:36:22.975Z,20.49
2018-05-08T00:37:23.003Z,20.49
2018-05-08T00:38:23.031Z,20.49
2018-05-08T00:39:23.057Z,20.49
2018-05-08T00:40:23.086Z,20.49
2018-05-08T00:41:23.112Z,20.49
2018-05-08T00:42:23.177Z,20.68
2018-05-08T00:43:23.171Z,20.78
2018-05-08T00:44:23.196Z,20.78
2018-05-08T00:45:23.223Z,20.39
2018-05-08T00:46:23.253Z,20.39
2018-05-08T00:47:23.278Z,20.10
2018-05-08T00:48:23.305Z,20.01
2018-05-08T00:49:23.334Z,20.20
2018-05-08T00:50:23.361Z,20.29
2018-05-08T00:51:23.388Z,20.39
2018-05-08T00:52:23.416Z,20.29
2018-05-08T00:53:23.443Z,20.39
2018-05-08T00:54:23.471Z,20.49
2018-05-08T00:55:23.498Z,20.59
2018-05-08T00:56:23.528Z,20.20
2018-05-08T00:57:23.554Z,20.20
2018-05-08T00:58:23.585Z,20.29
2018-05-08T00:59:23.609Z,20.39
2018-05-08T01:00:23.636Z,20.29
2018-05-08T01:01:23.665Z,20.10
2018-05-08T01:02:23.692Z,20.29
2018-05-08T01:03:23.727Z,20.29
2018-05-08T01:04:23.750Z,20.01
2018-05-08T01:05:23.774Z,19.91
2018-05-08T01:06:23.802Z,19.91
2018-05-08T01:07:23.829Z,19.91
2018-05-08T01:08:23.856Z,20.09
2018-05-08T01:09:23.884Z,19.91
2018-05-08T01:10:23.917Z,20.39
2018-05-08T01:11:23.940Z,20.39
2018-05-08T01:12:23.989Z,20.28
2018-05-08T01:13:23.994Z,20.20
2018-05-08T01:14:24.023Z,19.91
2018-05-08T01:15:24.049Z,20.10
2018-05-08T01:16:24.078Z,20.10
2018-05-08T01:17:24.105Z,20.29
2018-05-08T01:18:24.136Z,20.01
2018-05-08T01:19:24.163Z,20.10
2018-05-08T01:20:24.194Z,19.33
2018-05-08T01:21:24.216Z,20.01
2018-05-08T01:22:24.243Z,20.01
2018-05-08T01:23:24.270Z,19.91
2018-05-08T01:24:24.298Z,19.43
2018-05-08T01:25:24.325Z,19.52
2018-05-08T01:26:24.393Z,19.52
2018-05-08T01:27:24.380Z,19.52
2018-05-08T01:28:24.408Z,19.52
2018-05-08T01:29:24.435Z,19.52
2018-05-08T01:30:24.504Z,19.71
2018-05-08T01:31:24.491Z,19.71
2018-05-08T01:32:24.517Z,19.62
2018-05-08T01:33:24.546Z,19.62
2018-05-08T01:34:24.578Z,19.62
2018-05-08T01:35:24.600Z,19.43
2018-05-08T01:36:24.639Z,19.52
2018-05-08T01:37:24.655Z,19.23
2018-05-08T01:38:24.683Z,19.23
2018-05-08T01:39:24.714Z,19.43
2018-05-08T01:40:24.737Z,19.33
2018-05-08T01:41:24.766Z,19.33
2018-05-08T01:42:24.795Z,19.33
2018-05-08T01:43:24.821Z,19.62
2018-05-08T01:44:24.855Z,19.52
2018-05-08T01:45:24.876Z,19.71
2018-05-08T01:46:24.903Z,19.52
2018-05-08T01:47:24.932Z,19.43
2018-05-08T01:48:24.958Z,19.05
2018-05-08T01:49:24.986Z,19.13
2018-05-08T01:50:25.014Z,19.23
2018-05-08T01:51:25.061Z,19.13
2018-05-08T01:52:25.069Z,19.15
2018-05-08T01:53:25.112Z,19.13
2018-05-08T01:54:25.124Z,19.15
2018-05-08T01:55:25.151Z,19.05
2018-05-08T01:56:25.178Z,19.24
2018-05-08T01:57:25.207Z,19.04
2018-05-08T01:58:25.234Z,19.04
2018-05-08T01:59:25.284Z,19.04
2018-05-08T02:00:25.289Z,19.04
2018-05-08T02:01:25.317Z,19.23
2018-05-08T02:02:25.344Z,18.94
2018-05-08T02:03:25.371Z,19.33
2018-05-08T02:04:25.455Z,19.33
2018-05-08T02:05:25.427Z,19.33
2018-05-08T02:06:25.455Z,19.43
2018-05-08T02:07:25.482Z,19.33
2018-05-08T02:08:25.538Z,19.23
2018-05-08T02:09:25.538Z,19.33
2018-05-08T02:10:25.565Z,19.15
2018-05-08T02:11:25.592Z,19.34
2018-05-08T02:12:25.620Z,19.33
2018-05-08T02:13:25.648Z,19.15
2018-05-08T02:14:25.676Z,19.05
2018-05-08T02:15:25.702Z,19.15
2018-05-08T02:16:25.731Z,19.05
2018-05-08T02:17:25.758Z,19.43
2018-05-08T02:18:25.789Z,19.15
2018-05-08T02:19:25.814Z,19.15
2018-05-08T02:20:25.882Z,19.13
2018-05-08T02:21:25.868Z,19.33
2018-05-08T02:22:25.897Z,19.13
2018-05-08T02:23:25.923Z,19.04
2018-05-08T02:24:25.951Z,19.33
2018-05-08T02:25:25.978Z,19.05
2018-05-08T02:26:26.007Z,19.43
2018-05-08T02:27:26.033Z,19.15
2018-05-08T02:28:26.062Z,18.95
2018-05-08T02:29:26.090Z,19.34
2018-05-08T02:30:26.148Z,18.76
2018-05-08T02:31:26.144Z,18.76
2018-05-08T02:32:26.172Z,18.76
2018-05-08T02:33:26.204Z,18.95
2018-05-08T02:34:26.233Z,18.95
2018-05-08T02:35:26.266Z,19.05
2018-05-08T02:36:26.284Z,18.57
2018-05-08T02:37:26.311Z,18.47
2018-05-08T02:38:26.339Z,18.57
2018-05-08T02:39:26.381Z,18.38
2018-05-08T02:40:26.394Z,18.57
2018-05-08T02:41:26.423Z,18.57
2018-05-08T02:42:26.449Z,18.48
2018-05-08T02:43:26.475Z,18.48
2018-05-08T02:44:26.507Z,18.57
2018-05-08T02:45:26.551Z,18.48
2018-05-08T02:46:26.565Z,18.57
2018-05-08T02:47:26.586Z,18.57
2018-05-08T02:48:26.616Z,18.38
2018-05-08T02:49:26.643Z,18.48
2018-05-08T02:50:26.671Z,18.57
2018-05-08T02:51:26.697Z,18.19
2018-05-08T02:52:26.786Z,18.28
2018-05-08T02:53:26.764Z,18.49
2018-05-08T02:54:26.781Z,17.70
2018-05-08T02:55:26.808Z,17.71
2018-05-08T02:56:26.837Z,17.90
2018-05-08T02:57:26.864Z,18.00
2018-05-08T02:58:26.893Z,17.81
2018-05-08T02:59:26.958Z,18.00
2018-05-08T03:00:26.947Z,18.00
2018-05-08T03:01:27.013Z,18.00
2018-05-08T03:02:27.003Z,17.90
2018-05-08T03:03:27.030Z,18.00
2018-05-08T03:04:27.058Z,17.90
2018-05-08T03:05:27.086Z,18.00
2018-05-08T03:06:27.113Z,17.71
2018-05-08T03:07:27.141Z,17.71
2018-05-08T03:08:27.169Z,17.61
2018-05-08T03:09:27.198Z,17.61
2018-05-08T03:10:27.225Z,17.90
2018-05-08T03:11:27.252Z,17.81
2018-05-08T03:12:27.284Z,17.90
2018-05-08T03:13:27.307Z,17.81
2018-05-08T03:14:27.336Z,18.00
2018-05-08T03:15:27.367Z,17.90
2018-05-08T03:16:27.393Z,17.90
2018-05-08T03:17:27.418Z,17.90
2018-05-08T03:18:27.447Z,17.71
2018-05-08T03:19:27.474Z,17.81
2018-05-08T03:20:27.502Z,17.52
2018-05-08T03:21:27.529Z,17.52
2018-05-08T03:22:27.584Z,17.61
2018-05-08T03:23:27.616Z,17.61
2018-05-08T03:24:27.621Z,17.61
2018-05-08T03:25:27.640Z,17.71
2018-05-08T03:26:27.669Z,17.71
2018-05-08T03:27:27.725Z,17.61
2018-05-08T03:28:27.724Z,17.81
2018-05-08T03:29:27.751Z,17.81
2018-05-08T03:30:27.780Z,17.61
2018-05-08T03:31:27.807Z,17.81
2018-05-08T03:32:27.835Z,17.61
2018-05-08T03:33:27.865Z,17.71
2018-05-08T03:34:27.891Z,17.61
2018-05-08T03:35:27.917Z,17.52
2018-05-08T03:36:27.946Z,17.61
2018-05-08T03:37:27.974Z,17.52
2018-05-08T03:38:28.002Z,17.61
2018-05-08T03:39:28.064Z,17.52
2018-05-08T03:40:28.060Z,17.61
2018-05-08T03:41:28.085Z,17.52
2018-05-08T03:42:28.118Z,17.32
2018-05-08T03:43:28.141Z,17.22
2018-05-08T03:44:28.169Z,17.22
2018-05-08T03:45:28.197Z,17.52
2018-05-08T03:46:28.225Z,17.22
2018-05-08T03:47:28.263Z,17.32
2018-05-08T03:48:28.281Z,17.32
2018-05-08T03:49:28.309Z,17.42
2018-05-08T03:50:28.337Z,17.32
2018-05-08T03:51:28.363Z,17.52
2018-05-08T03:52:28.391Z,16.94
2018-05-08T03:53:28.423Z,16.94
2018-05-08T03:54:28.452Z,17.33
2018-05-08T03:55:28.482Z,16.66
2018-05-08T03:56:28.504Z,16.66
2018-05-08T03:57:28.616Z,16.66
2018-05-08T03:58:28.560Z,16.56
2018-05-08T03:59:28.590Z,16.47
2018-05-08T04:00:28.679Z,16.28
2018-05-08T04:01:28.682Z,16.47
2018-05-08T04:02:28.672Z,15.99
2018-05-08T04:03:28.699Z,15.99
2018-05-08T04:04:28.728Z,16.08
2018-05-08T04:05:28.755Z,15.99
2018-05-08T04:06:28.783Z,15.99
2018-05-08T04:07:28.811Z,16.08
2018-05-08T04:08:28.861Z,16.08
2018-05-08T04:09:28.869Z,16.47
2018-05-08T04:10:28.930Z,16.37
2018-05-08T04:11:28.924Z,16.37
2018-05-08T04:12:28.951Z,16.66
2018-05-08T04:13:28.980Z,16.47
2018-05-08T04:14:29.008Z,16.94
2018-05-08T04:15:29.090Z,16.85
2018-05-08T04:16:29.063Z,16.75
2018-05-08T04:17:29.092Z,16.66
2018-05-08T04:18:29.121Z,16.94
2018-05-08T04:19:29.146Z,16.66
2018-05-08T04:20:29.189Z,16.56
2018-05-08T04:21:29.204Z,16.66
2018-05-08T04:22:29.234Z,16.75
2018-05-08T04:23:29.263Z,16.75
2018-05-08T04:24:29.288Z,16.56
2018-05-08T04:25:29.316Z,16.66
2018-05-08T04:26:29.344Z,16.85
2018-05-08T04:27:29.396Z,16.66
2018-05-08T04:28:29.402Z,16.75
2018-05-08T04:29:29.428Z,16.66
2018-05-08T04:30:29.457Z,16.66
2018-05-08T04:31:29.483Z,16.56
2018-05-08T04:32:29.537Z,16.74
2018-05-08T04:33:29.539Z,16.84
2018-05-08T04:34:29.567Z,16.74
2018-05-08T04:35:29.595Z,16.64
2018-05-08T04:36:29.628Z,16.75
2018-05-08T04:37:29.652Z,16.74
2018-05-08T04:38:29.684Z,16.84
2018-05-08T04:39:29.707Z,16.84
2018-05-08T04:40:29.746Z,16.85
2018-05-08T04:41:29.785Z,16.84
2018-05-08T04:42:29.792Z,16.74
2018-05-08T04:43:29.846Z,16.74
2018-05-08T04:44:29.862Z,16.94
2018-05-08T04:45:29.875Z,16.84
2018-05-08T04:46:29.904Z,16.74
2018-05-08T04:47:29.973Z,16.64
2018-05-08T04:48:29.960Z,16.64
2018-05-08T04:49:29.987Z,16.94
2018-05-08T04:50:30.016Z,16.64
2018-05-08T04:51:30.043Z,16.64
2018-05-08T04:52:30.072Z,16.84
2018-05-08T04:53:30.101Z,16.84
2018-05-08T04:54:30.127Z,16.84
2018-05-08T04:55:30.154Z,16.84
2018-05-08T04:56:30.183Z,16.94
2018-05-08T04:57:30.211Z,16.66
2018-05-08T04:58:30.241Z,16.85
2018-05-08T04:59:30.268Z,16.75
2018-05-08T05:00:30.294Z,16.94
2018-05-08T05:01:30.325Z,16.66
2018-05-08T05:02:30.351Z,16.37
2018-05-08T05:03:30.379Z,16.18
2018-05-08T05:04:30.408Z,16.18
2018-05-08T05:05:30.461Z,16.28
2018-05-08T05:06:30.463Z,16.28
2018-05-08T05:07:30.490Z,16.37
2018-05-08T05:08:30.520Z,16.37
2018-05-08T05:09:30.549Z,16.47
2018-05-08T05:10:30.592Z,16.18
2018-05-08T05:11:30.603Z,16.37
2018-05-08T05:12:30.631Z,16.56
2018-05-08T05:13:30.659Z,16.66
2018-05-08T05:14:30.687Z,16.66
2018-05-08T05:15:30.715Z,16.66
2018-05-08T05:16:30.745Z,16.56
2018-05-08T05:17:30.772Z,16.47
2018-05-08T05:18:30.803Z,16.76
2018-05-08T05:19:30.829Z,16.76
2018-05-08T05:20:30.855Z,16.66
2018-05-08T05:21:30.883Z,16.86
2018-05-08T05:22:30.953Z,16.96
2018-05-08T05:23:30.943Z,16.76
2018-05-08T05:24:30.983Z,16.66
2018-05-08T05:25:30.997Z,16.75
2018-05-08T05:26:31.025Z,16.86
2018-05-08T05:27:31.055Z,16.66
2018-05-08T05:28:31.081Z,16.94
2018-05-08T05:29:31.128Z,16.56
2018-05-08T05:30:31.139Z,16.66
2018-05-08T05:31:31.188Z,16.56
2018-05-08T05:32:31.194Z,16.85
2018-05-08T05:33:31.222Z,16.94
2018-05-08T05:34:31.252Z,16.94
2018-05-08T05:35:31.278Z,16.56
2018-05-08T05:36:31.310Z,16.75
2018-05-08T05:37:31.339Z,16.66
2018-05-08T05:38:31.361Z,16.75
2018-05-08T05:39:31.390Z,16.75
2018-05-08T05:40:31.417Z,16.74
2018-05-08T05:41:31.448Z,16.66
2018-05-08T05:42:31.508Z,16.75
2018-05-08T05:43:31.503Z,16.84
2018-05-08T05:44:31.529Z,16.56
2018-05-08T05:45:32.448Z,16.75
2018-05-08T05:46:31.587Z,16.85
2018-05-08T05:47:31.617Z,16.84
2018-05-08T05:48:31.644Z,16.75
2018-05-08T05:49:31.670Z,16.66
2018-05-08T05:50:31.703Z,16.64
2018-05-08T05:51:31.725Z,16.66
2018-05-08T05:52:31.755Z,16.66
2018-05-08T05:53:31.789Z,16.75
2018-05-08T05:54:31.812Z,16.75
2018-05-08T05:55:31.841Z,16.66
2018-05-08T05:56:31.873Z,16.56
2018-05-08T05:57:31.894Z,16.66
2018-05-08T05:58:31.965Z,16.56
2018-05-08T05:59:31.952Z,16.85
2018-05-08T06:00:31.978Z,16.85
2018-05-08T06:01:32.006Z,16.75
2018-05-08T06:02:32.034Z,16.66
2018-05-08T06:03:32.061Z,16.66
2018-05-08T06:04:32.089Z,16.85
2018-05-08T06:05:32.140Z,16.75
2018-05-08T06:06:32.145Z,17.04
2018-05-08T06:07:32.172Z,16.85
2018-05-08T06:08:32.232Z,16.85
2018-05-08T06:09:32.230Z,16.66
2018-05-08T06:10:32.258Z,16.75
2018-05-08T06:11:32.285Z,16.66
2018-05-08T06:12:32.313Z,16.75
2018-05-08T06:13:32.344Z,16.75
2018-05-08T06:14:32.370Z,16.75
2018-05-08T06:15:32.397Z,16.75
2018-05-08T06:16:32.425Z,16.85
2018-05-08T06:17:32.453Z,16.75
2018-05-08T06:18:32.481Z,16.66
2018-05-08T06:19:32.509Z,16.66
2018-05-08T06:20:32.537Z,16.75
2018-05-08T06:21:32.566Z,16.66
2018-05-08T06:22:32.594Z,16.66
2018-05-08T06:23:32.620Z,16.56
2018-05-08T06:24:32.649Z,16.56
2018-05-08T06:25:32.678Z,16.66
2018-05-08T06:26:32.750Z,16.46
2018-05-08T06:27:32.733Z,16.56
2018-05-08T06:28:32.781Z,16.46
2018-05-08T06:29:32.798Z,16.66
2018-05-08T06:30:32.846Z,16.56
2018-05-08T06:31:32.845Z,16.56
2018-05-08T06:32:32.873Z,16.66
2018-05-08T06:33:32.902Z,16.46
2018-05-08T06:34:32.931Z,16.46
2018-05-08T06:35:32.957Z,16.46
2018-05-08T06:36:32.987Z,16.75
2018-05-08T06:37:33.014Z,16.46
2018-05-08T06:38:33.083Z,16.66
2018-05-08T06:39:33.080Z,16.66
2018-05-08T06:40:33.101Z,16.56
2018-05-08T06:41:33.158Z,16.36
2018-05-08T06:42:33.154Z,16.36
2018-05-08T06:43:33.183Z,16.17
2018-05-08T06:44:33.212Z,16.17
2018-05-08T06:45:33.254Z,16.17
2018-05-08T06:46:33.279Z,16.27
2018-05-08T06:47:33.301Z,16.46
2018-05-08T06:48:33.323Z,16.46
2018-05-08T06:49:33.368Z,16.36
2018-05-08T06:50:33.378Z,16.46
2018-05-08T06:51:33.410Z,16.36
2018-05-08T06:52:33.435Z,16.27
2018-05-08T06:53:33.466Z,16.46
2018-05-08T06:54:33.492Z,16.46
2018-05-08T06:55:33.527Z,16.36
2018-05-08T06:56:33.547Z,16.27
2018-05-08T06:57:33.576Z,16.36
2018-05-08T06:58:33.603Z,16.36
2018-05-08T06:59:33.631Z,16.36
2018-05-08T07:00:33.689Z,16.36
2018-05-08T07:01:33.687Z,16.46
2018-05-08T07:02:33.716Z,16.36
2018-05-08T07:03:33.742Z,16.36
2018-05-08T07:04:33.773Z,16.36
2018-05-08T07:05:33.800Z,16.36
2018-05-08T07:06:33.830Z,16.36
2018-05-08T07:07:33.855Z,16.36
2018-05-08T07:08:33.885Z,16.36
2018-05-08T07:09:33.914Z,16.36
2018-05-08T07:10:33.942Z,16.17
2018-05-08T07:11:33.967Z,16.36
2018-05-08T07:12:34.020Z,16.46
2018-05-08T07:13:34.025Z,16.46
2018-05-08T07:14:34.061Z,16.46
2018-05-08T07:15:34.079Z,16.36
2018-05-08T07:16:34.110Z,16.36
2018-05-08T07:17:34.137Z,16.46
2018-05-08T07:18:34.169Z,16.36
2018-05-08T07:19:34.190Z,16.46
2018-05-08T07:20:34.221Z,16.46
2018-05-08T07:21:34.248Z,16.46
2018-05-08T07:22:34.282Z,16.07
2018-05-08T07:23:34.302Z,16.27
2018-05-08T07:24:34.331Z,16.17
2018-05-08T07:25:34.360Z,16.17
2018-05-08T07:26:34.390Z,16.07
2018-05-08T07:27:34.416Z,16.46
2018-05-08T07:28:34.463Z,16.46
2018-05-08T07:29:34.476Z,16.27
2018-05-08T07:30:34.505Z,16.28
2018-05-08T07:31:34.527Z,16.66
2018-05-08T07:32:34.557Z,16.56
2018-05-08T07:33:34.590Z,16.56
2018-05-08T07:34:34.616Z,16.08
2018-05-08T07:35:34.641Z,16.18
2018-05-08T07:36:34.669Z,16.28
2018-05-08T07:37:34.697Z,16.08
2018-05-08T07:38:34.725Z,16.47
2018-05-08T07:39:34.752Z,16.47
2018-05-08T07:40:34.783Z,16.37
2018-05-08T07:41:34.809Z,16.56
2018-05-08T07:42:34.837Z,16.56
2018-05-08T07:43:34.869Z,16.56
2018-05-08T07:44:34.893Z,16.36
2018-05-08T07:45:34.923Z,16.37
2018-05-08T07:46:34.953Z,16.47
2018-05-08T07:47:34.991Z,16.37
2018-05-08T07:48:35.006Z,16.17
2018-05-08T07:49:35.033Z,16.27
2018-05-08T07:50:35.062Z,16.36
2018-05-08T07:51:35.095Z,16.36
2018-05-08T07:52:35.122Z,16.56
2018-05-08T07:53:35.148Z,16.66
2018-05-08T07:54:35.179Z,16.56
2018-05-08T07:55:35.230Z,16.75
2018-05-08T07:56:35.230Z,16.66
2018-05-08T07:57:35.287Z,16.47
2018-05-08T07:58:35.286Z,16.56
2018-05-08T07:59:35.313Z,16.36
2018-05-08T08:00:35.342Z,16.27
2018-05-08T08:01:35.381Z,16.28
2018-05-08T08:02:35.405Z,16.17
2018-05-08T08:03:35.426Z,16.37
2018-05-08T08:04:35.453Z,16.36
2018-05-08T08:05:35.482Z,16.36
2018-05-08T08:06:35.511Z,16.36
2018-05-08T08:07:35.546Z,16.46
2018-05-08T08:08:35.575Z,16.27
2018-05-08T08:09:35.618Z,16.37
2018-05-08T08:10:35.624Z,16.66
2018-05-08T08:11:35.653Z,16.08
2018-05-08T08:12:35.689Z,15.99
2018-05-08T08:13:35.706Z,16.07
2018-05-08T08:14:35.740Z,15.99
2018-05-08T08:15:35.765Z,16.28
2018-05-08T08:16:35.791Z,16.66
2018-05-08T08:17:35.822Z,16.56
2018-05-08T08:18:35.868Z,16.46
2018-05-08T08:19:35.876Z,16.56
2018-05-08T08:20:35.903Z,16.27
2018-05-08T08:21:35.931Z,16.37
2018-05-08T08:22:35.995Z,16.36
2018-05-08T08:23:35.988Z,16.47
2018-05-08T08:24:36.016Z,16.37
2018-05-08T08:25:36.044Z,16.07
2018-05-08T08:26:36.073Z,16.37
2018-05-08T08:31:52.501Z,15.88
2018-05-08T08:32:52.469Z,15.69
2018-05-08T08:35:12.619Z,15.59
2018-05-08T08:36:12.594Z,15.69
2018-05-08T08:38:20.171Z,15.78
2018-05-08T08:39:19.968Z,15.69
2018-05-08T08:41:40.310Z,15.78
2018-05-08T08:42:40.090Z,15.98
2018-05-08T08:44:33.008Z,15.69
2018-05-08T08:45:33.007Z,16.07
2018-05-08T08:47:26.765Z,16.07
2018-05-08T08:48:26.776Z,16.27
2018-05-08T08:50:34.151Z,16.17
2018-05-08T08:51:34.150Z,16.27
2018-05-08T08:53:41.523Z,16.27
2018-05-08T08:54:41.522Z,16.27
2018-05-08T08:57:01.670Z,16.27
2018-05-08T08:58:01.667Z,15.49
2018-05-08T08:59:57.151Z,16.07
2018-05-08T09:00:56.283Z,15.98
2018-05-08T09:02:49.206Z,15.98
2018-05-08T09:03:49.206Z,15.49
2018-05-08T09:05:42.121Z,15.69
2018-05-08T09:06:42.150Z,15.69
2018-05-08T09:09:02.270Z,15.78
2018-05-08T09:10:02.247Z,15.78
2018-05-08T09:12:22.396Z,15.88
2018-05-08T09:13:22.372Z,15.59
2018-05-08T09:15:42.522Z,15.59
2018-05-08T09:16:42.508Z,15.59
2018-05-08T09:18:49.877Z,15.59
2018-05-08T09:19:49.876Z,15.78
2018-05-08T09:21:42.792Z,15.69
2018-05-08T09:22:42.788Z,15.69
2018-05-08T09:24:35.710Z,15.78
2018-05-08T09:25:35.716Z,15.59
2018-05-08T09:27:55.837Z,15.79
2018-05-08T09:28:55.843Z,15.79
2018-05-08T09:31:03.211Z,15.78
2018-05-08T09:32:03.207Z,15.78
2018-05-08T09:33:56.146Z,15.78
2018-05-08T09:34:56.130Z,15.78
2018-05-08T09:36:49.049Z,15.78
2018-05-08T09:37:49.086Z,15.69
2018-05-08T09:39:56.400Z,16.07
2018-05-08T09:40:56.443Z,15.99
2018-05-08T09:42:49.342Z,15.49
2018-05-08T09:43:49.343Z,15.59
2018-05-08T09:45:42.240Z,15.41
2018-05-08T09:46:42.267Z,15.49
2018-05-08T09:49:01.577Z,15.39
2018-05-08T09:50:01.543Z,15.30
2018-05-08T09:51:54.474Z,15.49
2018-05-08T09:52:54.474Z,15.30
2018-05-08T09:54:47.434Z,14.23
2018-05-08T09:55:47.391Z,14.32
2018-05-08T09:57:54.764Z,14.51
2018-05-08T09:58:54.761Z,14.70
2018-05-08T10:01:02.237Z,15.38
2018-05-08T10:02:02.136Z,15.28
2018-05-08T10:04:22.265Z,15.28
2018-05-08T10:05:22.261Z,14.70
2018-05-08T10:07:42.405Z,14.50
2018-05-08T10:08:42.419Z,14.70
2018-05-08T10:11:02.515Z,14.98
2018-05-08T10:12:02.513Z,15.18
2018-05-08T10:14:22.874Z,15.08
2018-05-08T10:15:22.873Z,14.98
2018-05-08T10:17:17.488Z,14.99
2018-05-08T10:18:17.493Z,14.80
2018-05-08T10:20:24.860Z,14.80
2018-05-08T10:21:24.873Z,14.70
2018-05-08T10:23:17.782Z,14.70
2018-05-08T10:24:17.779Z,14.61
2018-05-08T10:26:10.697Z,14.32
2018-05-08T10:27:10.708Z,14.51
2018-05-08T10:29:42.713Z,14.61
2018-05-08T10:30:42.731Z,14.51
2018-05-08T10:33:02.955Z,14.70
2018-05-08T10:34:02.860Z,14.70
2018-05-08T10:36:10.250Z,14.41
2018-05-08T10:37:10.230Z,14.51
2018-05-08T10:39:30.357Z,14.41
2018-05-08T10:40:30.356Z,14.22
2018-05-08T10:42:23.279Z,14.32
2018-05-08T10:43:23.276Z,14.32
2018-05-08T10:45:17.042Z,14.32
2018-05-08T10:46:17.045Z,14.51
2018-05-08T10:48:23.570Z,14.41
2018-05-08T10:49:23.570Z,14.51
2018-05-08T10:50:23.597Z,14.41
2018-05-08T10:51:23.626Z,14.32
2018-05-08T10:52:23.663Z,14.32
2018-05-08T10:53:23.685Z,14.32
2018-05-08T10:54:23.709Z,14.32
2018-05-08T10:55:23.770Z,14.51
2018-05-08T10:56:23.768Z,14.80
2018-05-08T10:57:23.792Z,14.51
2018-05-08T10:58:23.825Z,14.41
2018-05-08T10:59:23.848Z,14.51
2018-05-08T11:00:23.882Z,14.61
2018-05-08T11:01:23.902Z,14.12
2018-05-08T11:02:23.944Z,14.41
2018-05-08T11:03:23.958Z,14.41
2018-05-08T11:04:23.989Z,14.61
2018-05-08T11:05:24.014Z,14.12
2018-05-08T11:06:24.043Z,14.41
2018-05-08T11:07:24.068Z,14.32
2018-05-08T11:08:24.097Z,14.41
2018-05-08T11:09:24.123Z,14.61
2018-05-08T11:10:24.151Z,14.22
2018-05-08T11:11:24.180Z,14.32
2018-05-08T11:12:24.216Z,14.61
2018-05-08T11:13:24.237Z,14.03
2018-05-08T11:14:24.262Z,14.03
2018-05-08T11:15:24.290Z,14.12
2018-05-08T11:16:24.320Z,14.51
2018-05-08T11:17:24.345Z,14.03
2018-05-08T11:18:24.376Z,14.03
2018-05-08T11:19:24.402Z,14.03
2018-05-08T11:20:24.428Z,14.12
2018-05-08T11:21:24.456Z,14.12
2018-05-08T11:22:24.484Z,14.22
2018-05-08T11:23:24.513Z,14.13
2018-05-08T11:24:24.539Z,14.23
2018-05-08T11:25:24.598Z,14.22
2018-05-08T11:26:24.698Z,14.22
2018-05-08T11:27:24.622Z,14.22
2018-05-08T11:28:24.649Z,14.23
2018-05-08T11:29:24.678Z,14.32
2018-05-08T11:30:24.710Z,14.23
2018-05-08T11:31:24.735Z,14.23
2018-05-08T11:32:24.761Z,14.13
2018-05-08T11:33:24.790Z,14.23
2018-05-08T11:34:24.817Z,14.13
2018-05-08T11:35:24.846Z,14.32
2018-05-08T11:36:24.872Z,14.13
2018-05-08T11:37:24.899Z,14.13
2018-05-08T11:38:24.928Z,14.23
2018-05-08T11:39:24.974Z,14.13
2018-05-08T11:40:24.982Z,14.32
2018-05-08T11:41:25.011Z,14.23
2018-05-08T11:42:25.039Z,14.42
2018-05-08T11:43:25.069Z,14.32
2018-05-08T11:44:25.131Z,14.23
2018-05-08T11:45:25.122Z,14.23
2018-05-08T11:46:25.153Z,14.32
2018-05-08T11:47:25.179Z,14.32
2018-05-08T11:48:25.207Z,14.32
2018-05-08T11:49:25.233Z,14.23
2018-05-08T11:50:25.261Z,14.32
2018-05-08T11:51:25.289Z,14.32
2018-05-08T11:52:25.316Z,14.23
2018-05-08T11:53:25.346Z,14.32
2018-05-08T11:54:25.373Z,14.23
2018-05-08T11:55:25.401Z,14.32
2018-05-08T11:56:25.429Z,14.32
2018-05-08T11:57:25.456Z,14.13
2018-05-08T11:58:25.484Z,14.32
2018-05-08T11:59:25.512Z,14.22
2018-05-08T12:00:25.539Z,14.13
2018-05-08T12:01:25.567Z,14.22
2018-05-08T12:02:25.595Z,14.12
2018-05-08T12:03:25.623Z,14.22
2018-05-08T12:04:25.650Z,14.22
2018-05-08T12:05:25.677Z,14.32
2018-05-08T12:06:25.707Z,14.32
2018-05-08T12:07:25.760Z,14.12
2018-05-08T12:08:25.760Z,14.22
2018-05-08T12:09:25.789Z,14.32
2018-05-08T12:10:25.817Z,14.12
2018-05-08T12:11:25.847Z,14.12
2018-05-08T12:12:25.877Z,14.03
2018-05-08T12:13:25.931Z,14.41
2018-05-08T12:14:25.961Z,14.22
2018-05-08T12:15:25.956Z,14.12
2018-05-08T12:16:25.983Z,14.12
2018-05-08T12:17:26.011Z,14.12
2018-05-08T12:18:26.041Z,14.12
2018-05-08T12:19:26.597Z,14.31
2018-05-08T12:20:26.094Z,14.40
2018-05-08T12:21:26.121Z,14.40
2018-05-08T12:22:26.149Z,14.50
2018-05-08T12:23:26.177Z,14.22
2018-05-08T12:24:26.208Z,14.12
2018-05-08T12:25:26.294Z,14.22
2018-05-08T12:26:26.260Z,14.31
2018-05-08T12:27:26.290Z,14.31
2018-05-08T12:28:26.314Z,14.50
2018-05-08T12:29:26.349Z,14.40
2018-05-08T12:30:26.369Z,14.22
2018-05-08T12:31:26.399Z,14.22
2018-05-08T12:32:26.456Z,13.82
2018-05-08T12:33:26.528Z,13.83
2018-05-08T12:34:26.497Z,13.82
2018-05-08T12:35:26.508Z,13.92
2018-05-08T12:36:26.536Z,14.02
2018-05-08T12:37:26.607Z,14.02
2018-05-08T12:38:26.591Z,13.92
2018-05-08T12:39:26.618Z,13.93
2018-05-08T12:40:26.645Z,13.92
2018-05-08T12:41:26.673Z,13.73
2018-05-08T12:42:26.701Z,13.82
2018-05-08T12:43:26.755Z,14.12
2018-05-08T12:44:26.757Z,14.02
2018-05-08T12:45:26.811Z,14.02
2018-05-08T12:46:26.812Z,14.02
2018-05-08T12:47:26.840Z,13.73
2018-05-08T12:48:26.865Z,13.82
2018-05-08T12:49:26.893Z,13.83
2018-05-08T12:50:27.001Z,14.02
2018-05-08T12:51:26.949Z,13.93
2018-05-08T12:52:26.976Z,14.02
2018-05-08T12:53:27.003Z,14.03
2018-05-08T12:54:27.031Z,13.92
2018-05-08T12:55:27.058Z,13.93
2018-05-08T12:56:27.085Z,13.92
2018-05-08T12:57:27.114Z,14.02
2018-05-08T12:58:27.141Z,14.03
2018-05-08T12:59:27.172Z,13.92
2018-05-08T13:00:27.231Z,13.82
2018-05-08T13:01:27.226Z,13.83
2018-05-08T13:02:27.259Z,13.54
2018-05-08T13:03:27.281Z,13.45
2018-05-08T13:04:27.306Z,13.64
2018-05-08T13:05:27.348Z,13.44
2018-05-08T13:06:27.364Z,13.54
2018-05-08T13:07:27.389Z,13.73
2018-05-08T13:08:27.451Z,13.54
2018-05-08T13:09:27.483Z,13.64
2018-05-08T13:10:27.502Z,13.64
2018-05-08T13:11:27.500Z,13.63
2018-05-08T13:12:27.527Z,13.73
2018-05-08T13:13:27.555Z,13.64
2018-05-08T13:14:27.582Z,13.64
2018-05-08T13:15:27.615Z,13.63
2018-05-08T13:16:27.637Z,13.64
2018-05-08T13:17:27.665Z,13.54
2018-05-08T13:18:27.693Z,13.45
2018-05-08T13:19:27.721Z,13.82
2018-05-08T13:20:27.749Z,13.83
2018-05-08T13:21:27.775Z,13.64
2018-05-08T13:22:27.828Z,13.73
2018-05-08T13:23:27.831Z,13.63
2018-05-08T13:24:27.858Z,13.82
2018-05-08T13:25:27.887Z,13.82
2018-05-08T13:26:27.918Z,13.64
2018-05-08T13:27:27.943Z,13.82
2018-05-08T13:28:27.971Z,13.73
2018-05-08T13:29:27.998Z,13.73
2018-05-08T13:30:28.028Z,13.64
2018-05-08T13:31:28.142Z,13.93
2018-05-08T13:32:28.086Z,13.92
2018-05-08T13:33:28.108Z,13.73
2018-05-08T13:34:28.135Z,13.64
2018-05-08T13:35:28.164Z,13.64
2018-05-08T13:36:28.190Z,13.92
2018-05-08T13:37:28.219Z,13.83
2018-05-08T13:38:28.246Z,13.64
2018-05-08T13:39:28.274Z,13.82
2018-05-08T13:40:28.301Z,13.92
2018-05-08T13:41:28.328Z,13.93
2018-05-08T13:42:28.356Z,13.83
2018-05-08T13:43:28.393Z,13.92
2018-05-08T13:44:28.412Z,13.83
2018-05-08T13:45:28.439Z,13.92